sensor_id;sensor_type;location;lat;lon;timestamp;P1;durP1;ratioP1;P2;durP2;ratioP2
4837;SDS011;2433;48.768;9.154;2023-10-09T00:01:49;6.40;;;1.93;;
4837;SDS011;2433;48.768;9.154;2023-10-09T00:04:16;7.67;;;2.87;;
4837;SDS011;2433;48.768;9.154;2023-10-09T00:06:42;7.67;;;2.30;;
4837;SDS011;2433;48.768;9.154;2023-10-09T00:09:08;10.00;;;3.10;;
4837;SDS011;2433;48.768;9.154;2023-10-09T00:11:50;6.50;;;2.30;;
4837;SDS011;2433;48.768;9.154;2023-10-09T00:14:23;6.93;;;2.40;;
4837;SDS011;2433;48.768;9.154;2023-10-09T00:16:50;5.47;;;2.00;;
4837;SDS011;2433;48.768;9.154;2023-10-09T00:19:26;6.00;;;2.37;;
4837;SDS011;2433;48.768;9.154;2023-10-09T00:21:57;5.00;;;2.60;;
4837;SDS011;2433;48.768;9.154;2023-10-09T00:24:24;12.40;;;3.97;;
4837;SDS011;2433;48.768;9.154;2023-10-09T00:26:55;9.60;;;2.70;;
4837;SDS011;2433;48.768;9.154;2023-10-09T00:29:27;9.17;;;2.60;;
4837;SDS011;2433;48.768;9.154;2023-10-09T00:31:59;5.87;;;2.80;;
4837;SDS011;2433;48.768;9.154;2023-10-09T00:34:39;7.10;;;2.37;;
4837;SDS011;2433;48.768;9.154;2023-10-09T00:37:11;5.03;;;2.80;;
4837;SDS011;2433;48.768;9.154;2023-10-09T00:39:50;8.67;;;2.93;;
4837;SDS011;2433;48.768;9.154;2023-10-09T00:42:22;8.80;;;2.37;;
4837;SDS011;2433;48.768;9.154;2023-10-09T00:45:03;9.53;;;2.97;;
4837;SDS011;2433;48.768;9.154;2023-10-09T00:47:31;4.63;;;1.90;;
4837;SDS011;2433;48.768;9.154;2023-10-09T00:50:02;6.53;;;2.03;;
4837;SDS011;2433;48.768;9.154;2023-10-09T00:52:41;8.03;;;2.80;;
4837;SDS011;2433;48.768;9.154;2023-10-09T00:55:17;10.43;;;3.10;;
4837;SDS011;2433;48.768;9.154;2023-10-09T00:58:06;8.30;;;2.80;;
4837;SDS011;2433;48.768;9.154;2023-10-09T01:00:38;7.50;;;2.73;;
4837;SDS011;2433;48.768;9.154;2023-10-09T01:03:18;9.07;;;3.57;;
4837;SDS011;2433;48.768;9.154;2023-10-09T01:05:46;7.27;;;2.50;;
4837;SDS011;2433;48.768;9.154;2023-10-09T01:08:23;6.00;;;2.93;;
4837;SDS011;2433;48.768;9.154;2023-10-09T01:10:58;6.80;;;2.93;;
4837;SDS011;2433;48.768;9.154;2023-10-09T01:13:34;8.30;;;2.80;;
4837;SDS011;2433;48.768;9.154;2023-10-09T01:16:16;5.33;;;3.37;;
4837;SDS011;2433;48.768;9.154;2023-10-09T01:18:43;6.63;;;2.37;;
4837;SDS011;2433;48.768;9.154;2023-10-09T01:21:10;11.03;;;2.77;;
4837;SDS011;2433;48.768;9.154;2023-10-09T01:23:44;6.20;;;2.43;;
4837;SDS011;2433;48.768;9.154;2023-10-09T01:26:30;8.93;;;2.30;;
4837;SDS011;2433;48.768;9.154;2023-10-09T01:29:00;7.87;;;3.07;;
4837;SDS011;2433;48.768;9.154;2023-10-09T01:31:26;3.37;;;1.77;;
4837;SDS011;2433;48.768;9.154;2023-10-09T01:33:53;9.00;;;3.10;;
4837;SDS011;2433;48.768;9.154;2023-10-09T01:36:19;4.00;;;2.37;;
4837;SDS011;2433;48.768;9.154;2023-10-09T01:39:05;3.77;;;1.90;;
4837;SDS011;2433;48.768;9.154;2023-10-09T01:41:35;6.63;;;2.67;;
4837;SDS011;2433;48.768;9.154;2023-10-09T01:44:11;11.13;;;3.50;;
4837;SDS011;2433;48.768;9.154;2023-10-09T01:46:38;6.77;;;2.50;;
4837;SDS011;2433;48.768;9.154;2023-10-09T01:49:03;6.60;;;2.90;;
4837;SDS011;2433;48.768;9.154;2023-10-09T01:51:35;5.73;;;2.47;;
4837;SDS011;2433;48.768;9.154;2023-10-09T01:54:02;6.90;;;2.80;;
4837;SDS011;2433;48.768;9.154;2023-10-09T01:56:28;5.73;;;2.53;;
4837;SDS011;2433;48.768;9.154;2023-10-09T01:58:53;7.57;;;2.43;;
4837;SDS011;2433;48.768;9.154;2023-10-09T02:01:22;4.13;;;2.73;;
4837;SDS011;2433;48.768;9.154;2023-10-09T02:03:49;9.13;;;2.70;;
4837;SDS011;2433;48.768;9.154;2023-10-09T02:06:17;8.13;;;2.23;;
4837;SDS011;2433;48.768;9.154;2023-10-09T02:08:53;9.90;;;3.40;;
4837;SDS011;2433;48.768;9.154;2023-10-09T02:11:19;6.23;;;2.40;;
4837;SDS011;2433;48.768;9.154;2023-10-09T02:14:03;3.83;;;2.50;;
4837;SDS011;2433;48.768;9.154;2023-10-09T02:16:41;8.07;;;3.37;;
4837;SDS011;2433;48.768;9.154;2023-10-09T02:19:07;13.07;;;4.20;;
4837;SDS011;2433;48.768;9.154;2023-10-09T02:21:55;8.57;;;3.00;;
4837;SDS011;2433;48.768;9.154;2023-10-09T02:24:26;5.73;;;2.90;;
4837;SDS011;2433;48.768;9.154;2023-10-09T02:27:08;5.70;;;2.50;;
4837;SDS011;2433;48.768;9.154;2023-10-09T02:29:35;3.80;;;1.97;;
4837;SDS011;2433;48.768;9.154;2023-10-09T02:32:03;4.27;;;2.37;;
4837;SDS011;2433;48.768;9.154;2023-10-09T02:34:41;10.60;;;2.70;;
4837;SDS011;2433;48.768;9.154;2023-10-09T02:37:12;7.47;;;2.87;;
4837;SDS011;2433;48.768;9.154;2023-10-09T02:39:38;3.90;;;2.87;;
4837;SDS011;2433;48.768;9.154;2023-10-09T02:42:13;8.67;;;2.63;;
4837;SDS011;2433;48.768;9.154;2023-10-09T02:44:39;5.70;;;2.87;;
4837;SDS011;2433;48.768;9.154;2023-10-09T02:47:11;4.70;;;2.70;;
4837;SDS011;2433;48.768;9.154;2023-10-09T02:49:43;6.10;;;2.90;;
4837;SDS011;2433;48.768;9.154;2023-10-09T02:52:09;11.07;;;2.93;;
4837;SDS011;2433;48.768;9.154;2023-10-09T02:54:35;9.07;;;2.90;;
4837;SDS011;2433;48.768;9.154;2023-10-09T02:57:06;6.27;;;3.27;;
4837;SDS011;2433;48.768;9.154;2023-10-09T02:59:36;4.80;;;1.80;;
4837;SDS011;2433;48.768;9.154;2023-10-09T03:02:06;7.17;;;1.80;;
4837;SDS011;2433;48.768;9.154;2023-10-09T03:04:32;5.90;;;1.67;;
4837;SDS011;2433;48.768;9.154;2023-10-09T03:07:02;4.50;;;1.40;;
4837;SDS011;2433;48.768;9.154;2023-10-09T03:09:29;2.10;;;1.10;;
4837;SDS011;2433;48.768;9.154;2023-10-09T03:12:03;2.47;;;1.20;;
4837;SDS011;2433;48.768;9.154;2023-10-09T03:14:36;6.53;;;1.57;;
4837;SDS011;2433;48.768;9.154;2023-10-09T03:17:05;8.27;;;1.87;;
4837;SDS011;2433;48.768;9.154;2023-10-09T03:19:32;2.13;;;1.30;;
4837;SDS011;2433;48.768;9.154;2023-10-09T03:22:03;3.00;;;1.50;;
4837;SDS011;2433;48.768;9.154;2023-10-09T03:24:30;5.20;;;1.53;;
4837;SDS011;2433;48.768;9.154;2023-10-09T03:26:59;2.60;;;1.20;;
4837;SDS011;2433;48.768;9.154;2023-10-09T03:29:25;7.80;;;1.83;;
4837;SDS011;2433;48.768;9.154;2023-10-09T03:31:52;2.47;;;1.57;;
4837;SDS011;2433;48.768;9.154;2023-10-09T03:34:18;4.33;;;1.77;;
4837;SDS011;2433;48.768;9.154;2023-10-09T03:36:47;7.10;;;1.30;;
4837;SDS011;2433;48.768;9.154;2023-10-09T03:39:25;1.43;;;0.97;;
4837;SDS011;2433;48.768;9.154;2023-10-09T03:42:06;2.40;;;0.90;;
4837;SDS011;2433;48.768;9.154;2023-10-09T03:44:37;1.87;;;1.47;;
4837;SDS011;2433;48.768;9.154;2023-10-09T03:47:07;5.83;;;1.57;;
4837;SDS011;2433;48.768;9.154;2023-10-09T03:49:36;1.90;;;1.30;;
4837;SDS011;2433;48.768;9.154;2023-10-09T03:52:04;5.10;;;1.13;;
4837;SDS011;2433;48.768;9.154;2023-10-09T03:54:32;2.00;;;1.50;;
4837;SDS011;2433;48.768;9.154;2023-10-09T03:57:00;6.17;;;2.00;;
4837;SDS011;2433;48.768;9.154;2023-10-09T03:59:26;2.87;;;1.00;;
4837;SDS011;2433;48.768;9.154;2023-10-09T04:01:55;2.83;;;1.90;;
4837;SDS011;2433;48.768;9.154;2023-10-09T04:04:23;3.33;;;1.03;;
4837;SDS011;2433;48.768;9.154;2023-10-09T04:06:49;3.33;;;1.40;;
4837;SDS011;2433;48.768;9.154;2023-10-09T04:09:18;4.43;;;1.10;;
4837;SDS011;2433;48.768;9.154;2023-10-09T04:11:47;4.70;;;0.90;;
4837;SDS011;2433;48.768;9.154;2023-10-09T04:14:25;1.77;;;1.10;;
4837;SDS011;2433;48.768;9.154;2023-10-09T04:17:00;4.67;;;1.20;;
4837;SDS011;2433;48.768;9.154;2023-10-09T04:19:29;2.17;;;1.10;;
4837;SDS011;2433;48.768;9.154;2023-10-09T04:22:05;3.40;;;1.33;;
4837;SDS011;2433;48.768;9.154;2023-10-09T04:24:34;3.00;;;1.30;;
4837;SDS011;2433;48.768;9.154;2023-10-09T04:27:09;3.90;;;1.60;;
4837;SDS011;2433;48.768;9.154;2023-10-09T04:29:35;2.93;;;1.57;;
4837;SDS011;2433;48.768;9.154;2023-10-09T04:32:04;3.00;;;1.47;;
4837;SDS011;2433;48.768;9.154;2023-10-09T04:34:33;3.13;;;1.20;;
4837;SDS011;2433;48.768;9.154;2023-10-09T04:37:03;3.50;;;2.00;;
4837;SDS011;2433;48.768;9.154;2023-10-09T04:39:49;2.40;;;1.00;;
4837;SDS011;2433;48.768;9.154;2023-10-09T04:42:38;3.43;;;1.73;;
4837;SDS011;2433;48.768;9.154;2023-10-09T04:45:06;3.37;;;1.47;;
4837;SDS011;2433;48.768;9.154;2023-10-09T04:47:36;1.37;;;1.13;;
4837;SDS011;2433;48.768;9.154;2023-10-09T04:50:09;2.80;;;1.47;;
4837;SDS011;2433;48.768;9.154;2023-10-09T04:52:37;1.97;;;1.30;;
4837;SDS011;2433;48.768;9.154;2023-10-09T04:55:03;6.60;;;1.33;;
4837;SDS011;2433;48.768;9.154;2023-10-09T04:57:42;1.97;;;0.90;;
4837;SDS011;2433;48.768;9.154;2023-10-09T05:00:08;4.30;;;1.20;;
4837;SDS011;2433;48.768;9.154;2023-10-09T05:03:07;3.03;;;1.40;;
4837;SDS011;2433;48.768;9.154;2023-10-09T05:05:37;3.83;;;1.40;;
4837;SDS011;2433;48.768;9.154;2023-10-09T05:08:07;2.37;;;0.97;;
4837;SDS011;2433;48.768;9.154;2023-10-09T05:13:28;1.10;;;0.70;;
4837;SDS011;2433;48.768;9.154;2023-10-09T05:18:54;6.67;;;2.20;;
4837;SDS011;2433;48.768;9.154;2023-10-09T05:21:33;4.10;;;2.03;;
4837;SDS011;2433;48.768;9.154;2023-10-09T05:24:10;3.00;;;1.50;;
4837;SDS011;2433;48.768;9.154;2023-10-09T05:29:14;1.90;;;0.93;;
4837;SDS011;2433;48.768;9.154;2023-10-09T05:31:51;2.40;;;1.00;;
4837;SDS011;2433;48.768;9.154;2023-10-09T05:34:35;4.60;;;1.00;;
4837;SDS011;2433;48.768;9.154;2023-10-09T05:37:20;2.87;;;1.23;;
4837;SDS011;2433;48.768;9.154;2023-10-09T05:39:52;1.80;;;1.00;;
4837;SDS011;2433;48.768;9.154;2023-10-09T05:42:29;1.57;;;1.40;;
4837;SDS011;2433;48.768;9.154;2023-10-09T05:45:10;4.20;;;2.73;;
4837;SDS011;2433;48.768;9.154;2023-10-09T05:47:47;3.20;;;1.30;;
4837;SDS011;2433;48.768;9.154;2023-10-09T05:50:22;3.20;;;1.43;;
4837;SDS011;2433;48.768;9.154;2023-10-09T05:52:55;1.20;;;0.90;;
4837;SDS011;2433;48.768;9.154;2023-10-09T05:55:22;1.97;;;1.33;;
4837;SDS011;2433;48.768;9.154;2023-10-09T05:57:54;1.27;;;0.73;;
4837;SDS011;2433;48.768;9.154;2023-10-09T06:00:39;2.27;;;0.90;;
4837;SDS011;2433;48.768;9.154;2023-10-09T06:03:23;1.87;;;0.60;;
4837;SDS011;2433;48.768;9.154;2023-10-09T06:08:22;4.57;;;0.90;;
4837;SDS011;2433;48.768;9.154;2023-10-09T06:11:06;1.23;;;0.50;;
4837;SDS011;2433;48.768;9.154;2023-10-09T06:13:51;1.73;;;1.60;;
4837;SDS011;2433;48.768;9.154;2023-10-09T06:16:29;4.27;;;1.20;;
4837;SDS011;2433;48.768;9.154;2023-10-09T06:19:04;3.53;;;1.73;;
4837;SDS011;2433;48.768;9.154;2023-10-09T06:21:34;1.83;;;1.43;;
4837;SDS011;2433;48.768;9.154;2023-10-09T06:24:19;2.03;;;1.30;;
4837;SDS011;2433;48.768;9.154;2023-10-09T06:26:45;3.97;;;1.70;;
4837;SDS011;2433;48.768;9.154;2023-10-09T06:29:37;2.97;;;2.20;;
4837;SDS011;2433;48.768;9.154;2023-10-09T06:32:11;6.73;;;2.03;;
4837;SDS011;2433;48.768;9.154;2023-10-09T06:35:00;3.57;;;1.80;;
4837;SDS011;2433;48.768;9.154;2023-10-09T06:37:46;3.73;;;1.60;;
4837;SDS011;2433;48.768;9.154;2023-10-09T06:40:32;4.07;;;2.20;;
4837;SDS011;2433;48.768;9.154;2023-10-09T06:43:17;6.60;;;2.00;;
4837;SDS011;2433;48.768;9.154;2023-10-09T06:45:43;8.53;;;2.10;;
4837;SDS011;2433;48.768;9.154;2023-10-09T06:48:09;2.20;;;1.60;;
4837;SDS011;2433;48.768;9.154;2023-10-09T06:50:54;6.83;;;2.47;;
4837;SDS011;2433;48.768;9.154;2023-10-09T06:53:41;3.00;;;2.03;;
4837;SDS011;2433;48.768;9.154;2023-10-09T06:56:20;2.57;;;2.13;;
4837;SDS011;2433;48.768;9.154;2023-10-09T06:59:04;3.20;;;2.27;;
4837;SDS011;2433;48.768;9.154;2023-10-09T07:01:46;3.50;;;2.17;;
4837;SDS011;2433;48.768;9.154;2023-10-09T07:04:32;5.20;;;3.30;;
4837;SDS011;2433;48.768;9.154;2023-10-09T07:06:58;5.23;;;2.10;;
4837;SDS011;2433;48.768;9.154;2023-10-09T07:09:24;3.63;;;1.93;;
4837;SDS011;2433;48.768;9.154;2023-10-09T07:12:07;7.00;;;3.10;;
4837;SDS011;2433;48.768;9.154;2023-10-09T07:14:45;5.17;;;3.00;;
4837;SDS011;2433;48.768;9.154;2023-10-09T07:17:11;8.27;;;3.50;;
4837;SDS011;2433;48.768;9.154;2023-10-09T07:19:55;5.70;;;3.40;;
4837;SDS011;2433;48.768;9.154;2023-10-09T07:22:22;5.40;;;2.10;;
4837;SDS011;2433;48.768;9.154;2023-10-09T07:24:49;3.47;;;1.77;;
4837;SDS011;2433;48.768;9.154;2023-10-09T07:27:29;2.43;;;1.73;;
4837;SDS011;2433;48.768;9.154;2023-10-09T07:30:09;3.87;;;2.27;;
4837;SDS011;2433;48.768;9.154;2023-10-09T07:32:55;5.63;;;1.90;;
4837;SDS011;2433;48.768;9.154;2023-10-09T07:35:21;5.93;;;1.70;;
4837;SDS011;2433;48.768;9.154;2023-10-09T07:38:06;5.73;;;2.00;;
4837;SDS011;2433;48.768;9.154;2023-10-09T07:40:35;4.10;;;1.70;;
4837;SDS011;2433;48.768;9.154;2023-10-09T07:43:20;3.73;;;3.40;;
4837;SDS011;2433;48.768;9.154;2023-10-09T07:45:54;2.17;;;1.90;;
4837;SDS011;2433;48.768;9.154;2023-10-09T07:48:23;4.13;;;2.23;;
4837;SDS011;2433;48.768;9.154;2023-10-09T07:50:52;5.43;;;1.77;;
4837;SDS011;2433;48.768;9.154;2023-10-09T07:53:23;2.77;;;1.80;;
4837;SDS011;2433;48.768;9.154;2023-10-09T07:55:52;6.33;;;1.57;;
4837;SDS011;2433;48.768;9.154;2023-10-09T07:58:23;3.63;;;1.83;;
4837;SDS011;2433;48.768;9.154;2023-10-09T08:03:24;3.40;;;2.63;;
4837;SDS011;2433;48.768;9.154;2023-10-09T08:05:50;3.23;;;2.20;;
4837;SDS011;2433;48.768;9.154;2023-10-09T08:08:18;2.07;;;1.87;;
4837;SDS011;2433;48.768;9.154;2023-10-09T08:11:07;3.20;;;1.63;;
4837;SDS011;2433;48.768;9.154;2023-10-09T08:13:51;2.97;;;2.07;;
4837;SDS011;2433;48.768;9.154;2023-10-09T08:16:26;2.87;;;2.13;;
4837;SDS011;2433;48.768;9.154;2023-10-09T08:19:04;3.23;;;1.57;;
4837;SDS011;2433;48.768;9.154;2023-10-09T08:22:05;3.63;;;1.70;;
4837;SDS011;2433;48.768;9.154;2023-10-09T08:25:04;6.20;;;1.53;;
4837;SDS011;2433;48.768;9.154;2023-10-09T08:27:30;5.30;;;2.10;;
4837;SDS011;2433;48.768;9.154;2023-10-09T08:29:59;2.57;;;1.63;;
4837;SDS011;2433;48.768;9.154;2023-10-09T08:32:48;1.43;;;1.10;;
4837;SDS011;2433;48.768;9.154;2023-10-09T08:35:27;2.93;;;0.80;;
4837;SDS011;2433;48.768;9.154;2023-10-09T08:37:58;4.00;;;0.87;;
4837;SDS011;2433;48.768;9.154;2023-10-09T08:40:39;3.07;;;0.70;;
4837;SDS011;2433;48.768;9.154;2023-10-09T08:43:12;1.77;;;0.90;;
4837;SDS011;2433;48.768;9.154;2023-10-09T08:45:46;3.03;;;1.30;;
4837;SDS011;2433;48.768;9.154;2023-10-09T08:48:13;1.90;;;0.97;;
4837;SDS011;2433;48.768;9.154;2023-10-09T08:50:46;5.30;;;1.40;;
4837;SDS011;2433;48.768;9.154;2023-10-09T08:53:13;1.33;;;1.00;;
4837;SDS011;2433;48.768;9.154;2023-10-09T08:55:39;1.60;;;1.10;;
4837;SDS011;2433;48.768;9.154;2023-10-09T08:58:06;3.43;;;1.20;;
4837;SDS011;2433;48.768;9.154;2023-10-09T09:00:44;4.40;;;2.10;;
4837;SDS011;2433;48.768;9.154;2023-10-09T09:03:20;2.07;;;0.77;;
4837;SDS011;2433;48.768;9.154;2023-10-09T09:05:48;2.10;;;0.90;;
4837;SDS011;2433;48.768;9.154;2023-10-09T09:08:23;2.43;;;1.33;;
4837;SDS011;2433;48.768;9.154;2023-10-09T09:11:00;4.13;;;1.27;;
4837;SDS011;2433;48.768;9.154;2023-10-09T09:13:46;2.20;;;0.90;;
4837;SDS011;2433;48.768;9.154;2023-10-09T09:16:43;1.33;;;0.80;;
4837;SDS011;2433;48.768;9.154;2023-10-09T09:19:13;5.03;;;0.90;;
4837;SDS011;2433;48.768;9.154;2023-10-09T09:21:48;9.40;;;1.60;;
4837;SDS011;2433;48.768;9.154;2023-10-09T09:24:19;3.10;;;1.47;;
4837;SDS011;2433;48.768;9.154;2023-10-09T09:26:50;1.70;;;1.60;;
4837;SDS011;2433;48.768;9.154;2023-10-09T09:29:38;1.60;;;0.80;;
4837;SDS011;2433;48.768;9.154;2023-10-09T09:32:10;3.83;;;1.57;;
4837;SDS011;2433;48.768;9.154;2023-10-09T09:34:50;2.10;;;1.00;;
4837;SDS011;2433;48.768;9.154;2023-10-09T09:37:23;8.77;;;1.77;;
4837;SDS011;2433;48.768;9.154;2023-10-09T09:40:00;2.37;;;1.20;;
4837;SDS011;2433;48.768;9.154;2023-10-09T09:42:36;5.33;;;1.27;;
4837;SDS011;2433;48.768;9.154;2023-10-09T09:45:02;3.07;;;1.00;;
4837;SDS011;2433;48.768;9.154;2023-10-09T09:47:30;6.83;;;1.17;;
4837;SDS011;2433;48.768;9.154;2023-10-09T09:50:00;4.80;;;1.20;;
4837;SDS011;2433;48.768;9.154;2023-10-09T09:52:36;2.87;;;1.20;;
4837;SDS011;2433;48.768;9.154;2023-10-09T09:55:06;5.70;;;1.40;;
4837;SDS011;2433;48.768;9.154;2023-10-09T09:57:40;2.90;;;1.40;;
4837;SDS011;2433;48.768;9.154;2023-10-09T10:00:06;4.07;;;1.83;;
4837;SDS011;2433;48.768;9.154;2023-10-09T10:02:51;4.00;;;1.20;;
4837;SDS011;2433;48.768;9.154;2023-10-09T10:05:24;2.70;;;1.20;;
4837;SDS011;2433;48.768;9.154;2023-10-09T10:07:58;1.93;;;1.73;;
4837;SDS011;2433;48.768;9.154;2023-10-09T10:10:34;1.93;;;1.43;;
4837;SDS011;2433;48.768;9.154;2023-10-09T10:13:13;8.03;;;1.60;;
4837;SDS011;2433;48.768;9.154;2023-10-09T10:18:34;4.13;;;1.53;;
4837;SDS011;2433;48.768;9.154;2023-10-09T10:21:18;2.60;;;1.50;;
4837;SDS011;2433;48.768;9.154;2023-10-09T10:23:59;5.37;;;2.17;;
4837;SDS011;2433;48.768;9.154;2023-10-09T10:26:45;4.83;;;1.17;;
4837;SDS011;2433;48.768;9.154;2023-10-09T10:29:15;6.43;;;1.60;;
4837;SDS011;2433;48.768;9.154;2023-10-09T10:31:54;1.70;;;0.80;;
4837;SDS011;2433;48.768;9.154;2023-10-09T10:34:25;1.40;;;1.30;;
4837;SDS011;2433;48.768;9.154;2023-10-09T10:36:52;3.80;;;1.80;;
4837;SDS011;2433;48.768;9.154;2023-10-09T10:39:23;5.03;;;1.43;;
4837;SDS011;2433;48.768;9.154;2023-10-09T10:42:08;1.40;;;1.27;;
4837;SDS011;2433;48.768;9.154;2023-10-09T10:45:02;5.77;;;1.43;;
4837;SDS011;2433;48.768;9.154;2023-10-09T10:47:29;2.33;;;0.90;;
4837;SDS011;2433;48.768;9.154;2023-10-09T10:50:00;1.20;;;0.80;;
4837;SDS011;2433;48.768;9.154;2023-10-09T10:53:10;2.40;;;1.03;;
4837;SDS011;2433;48.768;9.154;2023-10-09T10:55:39;1.10;;;0.80;;
4837;SDS011;2433;48.768;9.154;2023-10-09T10:58:21;1.27;;;0.80;;
4837;SDS011;2433;48.768;9.154;2023-10-09T11:00:54;2.43;;;0.87;;
4837;SDS011;2433;48.768;9.154;2023-10-09T11:03:23;4.87;;;1.20;;
4837;SDS011;2433;48.768;9.154;2023-10-09T11:06:01;3.17;;;1.53;;
4837;SDS011;2433;48.768;9.154;2023-10-09T11:08:47;1.90;;;0.77;;
4837;SDS011;2433;48.768;9.154;2023-10-09T11:11:19;1.80;;;1.00;;
4837;SDS011;2433;48.768;9.154;2023-10-09T11:13:45;1.90;;;1.13;;
4837;SDS011;2433;48.768;9.154;2023-10-09T11:16:24;3.80;;;1.17;;
4837;SDS011;2433;48.768;9.154;2023-10-09T11:19:11;2.80;;;1.13;;
4837;SDS011;2433;48.768;9.154;2023-10-09T11:21:53;2.30;;;1.10;;
4837;SDS011;2433;48.768;9.154;2023-10-09T11:24:32;6.37;;;1.53;;
4837;SDS011;2433;48.768;9.154;2023-10-09T11:27:04;3.00;;;1.30;;
4837;SDS011;2433;48.768;9.154;2023-10-09T11:29:32;1.10;;;0.87;;
4837;SDS011;2433;48.768;9.154;2023-10-09T11:32:17;1.97;;;0.70;;
4837;SDS011;2433;48.768;9.154;2023-10-09T11:37:35;1.53;;;0.70;;
4837;SDS011;2433;48.768;9.154;2023-10-09T11:40:04;1.60;;;0.73;;
4837;SDS011;2433;48.768;9.154;2023-10-09T11:42:49;2.30;;;1.17;;
4837;SDS011;2433;48.768;9.154;2023-10-09T11:45:21;1.23;;;0.83;;
4837;SDS011;2433;48.768;9.154;2023-10-09T11:47:50;2.17;;;1.30;;
4837;SDS011;2433;48.768;9.154;2023-10-09T11:53:16;1.73;;;0.73;;
4837;SDS011;2433;48.768;9.154;2023-10-09T11:55:48;3.00;;;1.23;;
4837;SDS011;2433;48.768;9.154;2023-10-09T11:58:17;2.53;;;1.10;;
4837;SDS011;2433;48.768;9.154;2023-10-09T12:00:49;3.23;;;1.03;;
4837;SDS011;2433;48.768;9.154;2023-10-09T12:03:27;2.73;;;1.30;;
4837;SDS011;2433;48.768;9.154;2023-10-09T12:05:58;5.30;;;1.33;;
4837;SDS011;2433;48.768;9.154;2023-10-09T12:08:31;4.10;;;1.23;;
4837;SDS011;2433;48.768;9.154;2023-10-09T12:10:57;2.83;;;1.43;;
4837;SDS011;2433;48.768;9.154;2023-10-09T12:13:23;3.20;;;1.70;;
4837;SDS011;2433;48.768;9.154;2023-10-09T12:15:50;2.40;;;1.43;;
4837;SDS011;2433;48.768;9.154;2023-10-09T12:18:17;2.70;;;1.30;;
4837;SDS011;2433;48.768;9.154;2023-10-09T12:20:44;2.83;;;1.47;;
4837;SDS011;2433;48.768;9.154;2023-10-09T12:23:16;1.53;;;1.03;;
4837;SDS011;2433;48.768;9.154;2023-10-09T12:25:43;5.80;;;1.63;;
4837;SDS011;2433;48.768;9.154;2023-10-09T12:28:11;3.47;;;1.37;;
4837;SDS011;2433;48.768;9.154;2023-10-09T12:30:38;4.20;;;1.67;;
4837;SDS011;2433;48.768;9.154;2023-10-09T12:33:07;2.60;;;1.67;;
4837;SDS011;2433;48.768;9.154;2023-10-09T12:35:39;2.97;;;1.40;;
4837;SDS011;2433;48.768;9.154;2023-10-09T12:38:06;3.00;;;1.27;;
4837;SDS011;2433;48.768;9.154;2023-10-09T12:40:36;1.50;;;1.40;;
4837;SDS011;2433;48.768;9.154;2023-10-09T12:43:03;2.57;;;1.40;;
4837;SDS011;2433;48.768;9.154;2023-10-09T12:45:29;3.90;;;1.60;;
4837;SDS011;2433;48.768;9.154;2023-10-09T12:47:58;2.87;;;1.80;;
4837;SDS011;2433;48.768;9.154;2023-10-09T12:50:25;2.27;;;1.30;;
4837;SDS011;2433;48.768;9.154;2023-10-09T12:52:56;2.50;;;1.63;;
4837;SDS011;2433;48.768;9.154;2023-10-09T12:55:27;3.00;;;1.73;;
4837;SDS011;2433;48.768;9.154;2023-10-09T12:58:00;3.40;;;1.63;;
4837;SDS011;2433;48.768;9.154;2023-10-09T13:00:27;2.40;;;0.93;;
4837;SDS011;2433;48.768;9.154;2023-10-09T13:02:52;3.47;;;1.57;;
4837;SDS011;2433;48.768;9.154;2023-10-09T13:05:18;3.77;;;1.70;;
4837;SDS011;2433;48.768;9.154;2023-10-09T13:07:53;3.10;;;1.43;;
4837;SDS011;2433;48.768;9.154;2023-10-09T13:10:23;3.07;;;1.43;;
4837;SDS011;2433;48.768;9.154;2023-10-09T13:12:49;5.73;;;2.70;;
4837;SDS011;2433;48.768;9.154;2023-10-09T13:15:20;4.97;;;2.27;;
4837;SDS011;2433;48.768;9.154;2023-10-09T13:17:46;6.63;;;2.57;;
4837;SDS011;2433;48.768;9.154;2023-10-09T13:20:12;3.43;;;1.43;;
4837;SDS011;2433;48.768;9.154;2023-10-09T13:22:38;5.90;;;2.00;;
4837;SDS011;2433;48.768;9.154;2023-10-09T13:25:05;4.20;;;2.17;;
4837;SDS011;2433;48.768;9.154;2023-10-09T13:27:31;4.90;;;1.70;;
4837;SDS011;2433;48.768;9.154;2023-10-09T13:30:00;3.37;;;1.67;;
4837;SDS011;2433;48.768;9.154;2023-10-09T13:32:35;4.73;;;2.50;;
4837;SDS011;2433;48.768;9.154;2023-10-09T13:35:02;5.77;;;2.77;;
4837;SDS011;2433;48.768;9.154;2023-10-09T13:37:31;2.80;;;1.57;;
4837;SDS011;2433;48.768;9.154;2023-10-09T13:40:05;5.00;;;2.23;;
4837;SDS011;2433;48.768;9.154;2023-10-09T13:42:35;5.43;;;1.77;;
4837;SDS011;2433;48.768;9.154;2023-10-09T13:45:04;5.77;;;2.40;;
4837;SDS011;2433;48.768;9.154;2023-10-09T13:47:32;6.30;;;3.50;;
4837;SDS011;2433;48.768;9.154;2023-10-09T13:49:58;3.87;;;2.30;;
4837;SDS011;2433;48.768;9.154;2023-10-09T13:52:25;3.90;;;2.10;;
4837;SDS011;2433;48.768;9.154;2023-10-09T13:54:52;5.10;;;2.23;;
4837;SDS011;2433;48.768;9.154;2023-10-09T13:57:18;4.13;;;2.20;;
4837;SDS011;2433;48.768;9.154;2023-10-09T13:59:47;4.17;;;1.60;;
4837;SDS011;2433;48.768;9.154;2023-10-09T14:02:16;3.07;;;1.63;;
4837;SDS011;2433;48.768;9.154;2023-10-09T14:04:44;3.83;;;1.43;;
4837;SDS011;2433;48.768;9.154;2023-10-09T14:07:11;2.70;;;1.50;;
4837;SDS011;2433;48.768;9.154;2023-10-09T14:09:42;3.40;;;1.70;;
4837;SDS011;2433;48.768;9.154;2023-10-09T14:12:08;4.67;;;1.53;;
4837;SDS011;2433;48.768;9.154;2023-10-09T14:14:34;5.50;;;1.63;;
4837;SDS011;2433;48.768;9.154;2023-10-09T14:17:04;3.90;;;2.00;;
4837;SDS011;2433;48.768;9.154;2023-10-09T14:19:40;4.10;;;2.13;;
4837;SDS011;2433;48.768;9.154;2023-10-09T14:22:12;1.80;;;1.30;;
4837;SDS011;2433;48.768;9.154;2023-10-09T14:24:41;4.87;;;2.37;;
4837;SDS011;2433;48.768;9.154;2023-10-09T14:27:13;4.87;;;1.90;;
4837;SDS011;2433;48.768;9.154;2023-10-09T14:29:45;3.07;;;1.47;;
4837;SDS011;2433;48.768;9.154;2023-10-09T14:32:14;4.23;;;1.93;;
4837;SDS011;2433;48.768;9.154;2023-10-09T14:34:42;3.03;;;1.87;;
4837;SDS011;2433;48.768;9.154;2023-10-09T14:37:20;4.67;;;2.00;;
4837;SDS011;2433;48.768;9.154;2023-10-09T14:39:46;3.20;;;2.10;;
4837;SDS011;2433;48.768;9.154;2023-10-09T14:42:15;4.50;;;2.13;;
4837;SDS011;2433;48.768;9.154;2023-10-09T14:44:46;4.90;;;1.90;;
4837;SDS011;2433;48.768;9.154;2023-10-09T14:47:12;3.30;;;1.77;;
4837;SDS011;2433;48.768;9.154;2023-10-09T14:49:39;3.60;;;2.00;;
4837;SDS011;2433;48.768;9.154;2023-10-09T14:52:12;3.83;;;2.00;;
4837;SDS011;2433;48.768;9.154;2023-10-09T14:54:42;3.53;;;2.03;;
4837;SDS011;2433;48.768;9.154;2023-10-09T14:57:10;3.67;;;1.60;;
4837;SDS011;2433;48.768;9.154;2023-10-09T14:59:37;4.47;;;1.40;;
4837;SDS011;2433;48.768;9.154;2023-10-09T15:02:03;2.37;;;1.43;;
4837;SDS011;2433;48.768;9.154;2023-10-09T15:04:30;6.07;;;2.20;;
4837;SDS011;2433;48.768;9.154;2023-10-09T15:07:02;3.60;;;1.90;;
4837;SDS011;2433;48.768;9.154;2023-10-09T15:09:32;5.40;;;2.10;;
4837;SDS011;2433;48.768;9.154;2023-10-09T15:12:02;3.70;;;2.20;;
4837;SDS011;2433;48.768;9.154;2023-10-09T15:14:31;4.53;;;2.07;;
4837;SDS011;2433;48.768;9.154;2023-10-09T15:16:57;5.27;;;2.03;;
4837;SDS011;2433;48.768;9.154;2023-10-09T15:19:22;5.10;;;1.90;;
4837;SDS011;2433;48.768;9.154;2023-10-09T15:21:55;3.30;;;1.40;;
4837;SDS011;2433;48.768;9.154;2023-10-09T15:24:24;4.17;;;1.73;;
4837;SDS011;2433;48.768;9.154;2023-10-09T15:26:50;4.83;;;2.00;;
4837;SDS011;2433;48.768;9.154;2023-10-09T15:29:23;3.83;;;1.63;;
4837;SDS011;2433;48.768;9.154;2023-10-09T15:31:56;2.77;;;1.50;;
4837;SDS011;2433;48.768;9.154;2023-10-09T15:34:33;3.80;;;1.57;;
4837;SDS011;2433;48.768;9.154;2023-10-09T15:37:00;2.93;;;1.73;;
4837;SDS011;2433;48.768;9.154;2023-10-09T15:39:26;3.87;;;1.90;;
4837;SDS011;2433;48.768;9.154;2023-10-09T15:41:51;3.20;;;1.37;;
4837;SDS011;2433;48.768;9.154;2023-10-09T15:44:17;4.27;;;1.60;;
4837;SDS011;2433;48.768;9.154;2023-10-09T15:46:43;6.17;;;1.83;;
4837;SDS011;2433;48.768;9.154;2023-10-09T15:49:12;6.00;;;2.33;;
4837;SDS011;2433;48.768;9.154;2023-10-09T15:51:39;3.70;;;1.70;;
4837;SDS011;2433;48.768;9.154;2023-10-09T15:54:05;4.23;;;2.30;;
4837;SDS011;2433;48.768;9.154;2023-10-09T15:56:30;4.23;;;1.73;;
4837;SDS011;2433;48.768;9.154;2023-10-09T15:58:56;3.77;;;1.63;;
4837;SDS011;2433;48.768;9.154;2023-10-09T16:01:22;6.50;;;1.10;;
4837;SDS011;2433;48.768;9.154;2023-10-09T16:03:48;3.47;;;1.40;;
4837;SDS011;2433;48.768;9.154;2023-10-09T16:06:14;3.97;;;1.60;;
4837;SDS011;2433;48.768;9.154;2023-10-09T16:08:41;5.07;;;1.50;;
4837;SDS011;2433;48.768;9.154;2023-10-09T16:11:10;5.10;;;1.87;;